sensor_id;sensor_type;location;lat;lon;timestamp;temperature;humidity
27671;DHT22;15077;49.704;9.908;2024-01-27T00:01:16;8.10;65.80
27671;DHT22;15077;49.704;9.908;2024-01-27T00:03:43;8.10;65.80
27671;DHT22;15077;49.704;9.908;2024-01-27T00:06:08;8.10;65.70
27671;DHT22;15077;49.704;9.908;2024-01-27T00:08:34;8.10;65.70
27671;DHT22;15077;49.704;9.908;2024-01-27T00:11:00;8.10;65.80
27671;DHT22;15077;49.704;9.908;2024-01-27T00:13:26;8.10;65.80
27671;DHT22;15077;49.704;9.908;2024-01-27T00:15:53;8.00;65.70
27671;DHT22;15077;49.704;9.908;2024-01-27T00:18:20;8.00;65.70
27671;DHT22;15077;49.704;9.908;2024-01-27T00:20:46;8.00;65.60
27671;DHT22;15077;49.704;9.908;2024-01-27T00:23:13;8.00;65.70
27671;DHT22;15077;49.704;9.908;2024-01-27T00:25:41;8.00;65.70
27671;DHT22;15077;49.704;9.908;2024-01-27T00:28:06;8.00;65.70
27671;DHT22;15077;49.704;9.908;2024-01-27T00:30:32;7.90;65.70
27671;DHT22;15077;49.704;9.908;2024-01-27T00:33:01;7.90;65.70
27671;DHT22;15077;49.704;9.908;2024-01-27T00:35:27;7.90;65.70
27671;DHT22;15077;49.704;9.908;2024-01-27T00:37:53;7.90;65.70
27671;DHT22;15077;49.704;9.908;2024-01-27T00:40:19;7.90;65.80
27671;DHT22;15077;49.704;9.908;2024-01-27T00:42:44;7.90;65.80
27671;DHT22;15077;49.704;9.908;2024-01-27T00:45:10;7.90;65.70
27671;DHT22;15077;49.704;9.908;2024-01-27T00:47:36;7.90;65.80
27671;DHT22;15077;49.704;9.908;2024-01-27T00:50:01;7.90;65.80
27671;DHT22;15077;49.704;9.908;2024-01-27T00:52:27;7.80;65.80
27671;DHT22;15077;49.704;9.908;2024-01-27T00:54:53;7.90;65.90
27671;DHT22;15077;49.704;9.908;2024-01-27T00:57:18;7.80;65.80
27671;DHT22;15077;49.704;9.908;2024-01-27T00:59:44;7.80;65.80
27671;DHT22;15077;49.704;9.908;2024-01-27T01:02:11;7.80;65.90
27671;DHT22;15077;49.704;9.908;2024-01-27T01:04:37;7.90;66.00
27671;DHT22;15077;49.704;9.908;2024-01-27T01:07:02;7.80;65.90
27671;DHT22;15077;49.704;9.908;2024-01-27T01:09:28;7.90;65.90
27671;DHT22;15077;49.704;9.908;2024-01-27T01:11:54;7.80;65.80
27671;DHT22;15077;49.704;9.908;2024-01-27T01:14:20;7.80;66.00
27671;DHT22;15077;49.704;9.908;2024-01-27T01:16:46;7.80;65.80
27671;DHT22;15077;49.704;9.908;2024-01-27T01:19:12;7.80;65.80
27671;DHT22;15077;49.704;9.908;2024-01-27T01:21:38;7.80;65.80
27671;DHT22;15077;49.704;9.908;2024-01-27T01:24:05;7.70;65.70
27671;DHT22;15077;49.704;9.908;2024-01-27T01:26:30;7.70;65.70
27671;DHT22;15077;49.704;9.908;2024-01-27T01:28:56;7.70;65.60
27671;DHT22;15077;49.704;9.908;2024-01-27T01:31:21;7.70;65.60
27671;DHT22;15077;49.704;9.908;2024-01-27T01:33:47;7.60;65.60
27671;DHT22;15077;49.704;9.908;2024-01-27T01:36:13;7.60;65.60
27671;DHT22;15077;49.704;9.908;2024-01-27T01:38:38;7.60;65.60
27671;DHT22;15077;49.704;9.908;2024-01-27T01:41:04;7.60;65.60
27671;DHT22;15077;49.704;9.908;2024-01-27T01:43:29;7.50;65.60
27671;DHT22;15077;49.704;9.908;2024-01-27T01:45:55;7.50;65.70
27671;DHT22;15077;49.704;9.908;2024-01-27T01:48:21;7.50;65.80
27671;DHT22;15077;49.704;9.908;2024-01-27T01:50:47;7.40;65.70
27671;DHT22;15077;49.704;9.908;2024-01-27T01:53:13;7.40;65.70
27671;DHT22;15077;49.704;9.908;2024-01-27T01:55:39;7.40;65.70
27671;DHT22;15077;49.704;9.908;2024-01-27T01:58:05;7.40;65.90
27671;DHT22;15077;49.704;9.908;2024-01-27T02:00:31;7.30;65.80
27671;DHT22;15077;49.704;9.908;2024-01-27T02:02:57;7.30;65.90
27671;DHT22;15077;49.704;9.908;2024-01-27T02:05:23;7.30;65.80
27671;DHT22;15077;49.704;9.908;2024-01-27T02:07:49;7.30;65.90
27671;DHT22;15077;49.704;9.908;2024-01-27T02:10:16;7.30;65.90
27671;DHT22;15077;49.704;9.908;2024-01-27T02:12:47;7.30;65.90
27671;DHT22;15077;49.704;9.908;2024-01-27T02:15:14;7.30;65.90
27671;DHT22;15077;49.704;9.908;2024-01-27T02:17:41;7.30;65.90
27671;DHT22;15077;49.704;9.908;2024-01-27T02:20:07;7.30;65.90
27671;DHT22;15077;49.704;9.908;2024-01-27T02:22:34;7.20;65.80
27671;DHT22;15077;49.704;9.908;2024-01-27T02:25:05;7.20;65.80
27671;DHT22;15077;49.704;9.908;2024-01-27T02:27:31;7.20;65.80
27671;DHT22;15077;49.704;9.908;2024-01-27T02:29:56;7.30;65.80
27671;DHT22;15077;49.704;9.908;2024-01-27T02:32:22;7.20;65.80
27671;DHT22;15077;49.704;9.908;2024-01-27T02:34:48;7.20;65.80
27671;DHT22;15077;49.704;9.908;2024-01-27T02:37:13;7.20;65.80
27671;DHT22;15077;49.704;9.908;2024-01-27T02:39:39;7.20;65.80
27671;DHT22;15077;49.704;9.908;2024-01-27T02:42:05;7.20;65.80
27671;DHT22;15077;49.704;9.908;2024-01-27T02:44:31;7.20;65.80
27671;DHT22;15077;49.704;9.908;2024-01-27T02:46:57;7.20;65.80
27671;DHT22;15077;49.704;9.908;2024-01-27T02:49:23;7.20;65.80
27671;DHT22;15077;49.704;9.908;2024-01-27T02:51:49;7.20;65.80
27671;DHT22;15077;49.704;9.908;2024-01-27T02:54:14;7.10;65.80
27671;DHT22;15077;49.704;9.908;2024-01-27T02:56:43;7.10;65.70
27671;DHT22;15077;49.704;9.908;2024-01-27T02:59:09;7.10;65.70
27671;DHT22;15077;49.704;9.908;2024-01-27T03:01:37;7.10;65.70
27671;DHT22;15077;49.704;9.908;2024-01-27T03:04:02;7.10;65.70
27671;DHT22;15077;49.704;9.908;2024-01-27T03:06:28;7.10;65.70
27671;DHT22;15077;49.704;9.908;2024-01-27T03:08:54;7.10;65.70
27671;DHT22;15077;49.704;9.908;2024-01-27T03:11:20;7.10;65.70
27671;DHT22;15077;49.704;9.908;2024-01-27T03:13:46;7.10;65.70
27671;DHT22;15077;49.704;9.908;2024-01-27T03:16:12;7.10;65.70
27671;DHT22;15077;49.704;9.908;2024-01-27T03:18:39;7.10;65.70
27671;DHT22;15077;49.704;9.908;2024-01-27T03:21:08;7.10;65.70
27671;DHT22;15077;49.704;9.908;2024-01-27T03:23:33;7.10;65.70
27671;DHT22;15077;49.704;9.908;2024-01-27T03:25:59;7.10;65.70
27671;DHT22;15077;49.704;9.908;2024-01-27T03:28:25;7.10;65.70
27671;DHT22;15077;49.704;9.908;2024-01-27T03:30:50;7.10;65.80
27671;DHT22;15077;49.704;9.908;2024-01-27T03:33:16;7.10;65.70
27671;DHT22;15077;49.704;9.908;2024-01-27T03:35:41;7.10;65.70
27671;DHT22;15077;49.704;9.908;2024-01-27T03:38:07;7.10;65.70
27671;DHT22;15077;49.704;9.908;2024-01-27T03:40:33;7.10;65.80
27671;DHT22;15077;49.704;9.908;2024-01-27T03:42:58;7.00;65.70
27671;DHT22;15077;49.704;9.908;2024-01-27T03:45:24;7.00;65.70
27671;DHT22;15077;49.704;9.908;2024-01-27T03:47:50;7.00;65.70
27671;DHT22;15077;49.704;9.908;2024-01-27T03:50:15;7.00;65.70
27671;DHT22;15077;49.704;9.908;2024-01-27T03:52:41;7.00;65.70
27671;DHT22;15077;49.704;9.908;2024-01-27T03:55:06;7.00;65.70
27671;DHT22;15077;49.704;9.908;2024-01-27T03:57:32;7.00;65.60
27671;DHT22;15077;49.704;9.908;2024-01-27T03:59:58;7.00;65.50
27671;DHT22;15077;49.704;9.908;2024-01-27T04:02:24;6.90;65.40
27671;DHT22;15077;49.704;9.908;2024-01-27T04:04:52;6.90;65.50
27671;DHT22;15077;49.704;9.908;2024-01-27T04:07:18;6.90;65.50
27671;DHT22;15077;49.704;9.908;2024-01-27T04:09:46;6.90;65.60
27671;DHT22;15077;49.704;9.908;2024-01-27T04:12:11;6.90;65.60
27671;DHT22;15077;49.704;9.908;2024-01-27T04:14:37;6.90;66.30
27671;DHT22;15077;49.704;9.908;2024-01-27T04:17:04;6.90;65.70
27671;DHT22;15077;49.704;9.908;2024-01-27T04:19:29;6.80;65.70
27671;DHT22;15077;49.704;9.908;2024-01-27T04:21:55;6.80;65.70
27671;DHT22;15077;49.704;9.908;2024-01-27T04:24:20;6.80;65.60
27671;DHT22;15077;49.704;9.908;2024-01-27T04:26:46;6.80;65.50
27671;DHT22;15077;49.704;9.908;2024-01-27T04:29:12;6.80;65.60
27671;DHT22;15077;49.704;9.908;2024-01-27T04:31:40;6.80;65.50
27671;DHT22;15077;49.704;9.908;2024-01-27T04:34:07;6.70;65.40
27671;DHT22;15077;49.704;9.908;2024-01-27T04:36:33;6.70;65.40
27671;DHT22;15077;49.704;9.908;2024-01-27T04:38:58;6.60;65.30
27671;DHT22;15077;49.704;9.908;2024-01-27T04:41:24;6.60;65.40
27671;DHT22;15077;49.704;9.908;2024-01-27T04:43:50;6.60;65.40
27671;DHT22;15077;49.704;9.908;2024-01-27T04:46:16;6.60;65.50
27671;DHT22;15077;49.704;9.908;2024-01-27T04:48:42;6.50;65.50
27671;DHT22;15077;49.704;9.908;2024-01-27T04:51:07;6.50;65.70
27671;DHT22;15077;49.704;9.908;2024-01-27T04:53:33;6.50;65.70
27671;DHT22;15077;49.704;9.908;2024-01-27T04:55:59;6.50;65.70
27671;DHT22;15077;49.704;9.908;2024-01-27T04:58:24;6.40;65.60
27671;DHT22;15077;49.704;9.908;2024-01-27T05:00:51;6.40;65.60
27671;DHT22;15077;49.704;9.908;2024-01-27T05:03:17;6.40;65.60
27671;DHT22;15077;49.704;9.908;2024-01-27T05:05:43;6.40;65.60
27671;DHT22;15077;49.704;9.908;2024-01-27T05:08:09;6.40;65.70
27671;DHT22;15077;49.704;9.908;2024-01-27T05:10:35;6.30;65.60
27671;DHT22;15077;49.704;9.908;2024-01-27T05:13:01;6.30;65.60
27671;DHT22;15077;49.704;9.908;2024-01-27T05:15:27;6.30;65.70
27671;DHT22;15077;49.704;9.908;2024-01-27T05:17:53;6.30;65.70
27671;DHT22;15077;49.704;9.908;2024-01-27T05:20:19;6.20;65.70
27671;DHT22;15077;49.704;9.908;2024-01-27T05:22:45;6.20;65.70
27671;DHT22;15077;49.704;9.908;2024-01-27T05:25:11;6.20;65.70
27671;DHT22;15077;49.704;9.908;2024-01-27T05:27:37;6.10;65.70
27671;DHT22;15077;49.704;9.908;2024-01-27T05:30:04;6.10;65.70
27671;DHT22;15077;49.704;9.908;2024-01-27T05:32:33;6.10;65.80
27671;DHT22;15077;49.704;9.908;2024-01-27T05:34:58;6.00;65.80
27671;DHT22;15077;49.704;9.908;2024-01-27T05:37:24;6.00;65.80
27671;DHT22;15077;49.704;9.908;2024-01-27T05:39:50;6.00;65.90
27671;DHT22;15077;49.704;9.908;2024-01-27T05:42:15;5.90;65.80
27671;DHT22;15077;49.704;9.908;2024-01-27T05:44:41;5.90;66.50
27671;DHT22;15077;49.704;9.908;2024-01-27T05:47:07;5.90;66.00
27671;DHT22;15077;49.704;9.908;2024-01-27T05:49:33;5.80;66.00
27671;DHT22;15077;49.704;9.908;2024-01-27T05:51:58;5.80;66.00
27671;DHT22;15077;49.704;9.908;2024-01-27T05:54:24;5.80;66.00
27671;DHT22;15077;49.704;9.908;2024-01-27T05:56:50;5.80;66.00
27671;DHT22;15077;49.704;9.908;2024-01-27T05:59:16;5.80;66.20
27671;DHT22;15077;49.704;9.908;2024-01-27T06:01:41;5.70;66.10
27671;DHT22;15077;49.704;9.908;2024-01-27T06:04:10;5.70;66.10
27671;DHT22;15077;49.704;9.908;2024-01-27T06:06:38;5.70;66.10
27671;DHT22;15077;49.704;9.908;2024-01-27T06:09:04;5.70;66.20
27671;DHT22;15077;49.704;9.908;2024-01-27T06:11:30;5.60;66.80
27671;DHT22;15077;49.704;9.908;2024-01-27T06:13:56;5.60;66.20
27671;DHT22;15077;49.704;9.908;2024-01-27T06:16:23;5.60;66.30
27671;DHT22;15077;49.704;9.908;2024-01-27T06:18:49;5.60;66.30
27671;DHT22;15077;49.704;9.908;2024-01-27T06:21:15;5.50;66.20
27671;DHT22;15077;49.704;9.908;2024-01-27T06:23:40;5.50;66.30
27671;DHT22;15077;49.704;9.908;2024-01-27T06:26:06;5.50;66.40
27671;DHT22;15077;49.704;9.908;2024-01-27T06:28:32;5.50;66.40
27671;DHT22;15077;49.704;9.908;2024-01-27T06:31:00;5.50;66.40
27671;DHT22;15077;49.704;9.908;2024-01-27T06:33:28;5.50;66.50
27671;DHT22;15077;49.704;9.908;2024-01-27T06:35:54;5.40;66.40
27671;DHT22;15077;49.704;9.908;2024-01-27T06:38:19;5.40;66.50
27671;DHT22;15077;49.704;9.908;2024-01-27T06:40:45;5.40;66.50
27671;DHT22;15077;49.704;9.908;2024-01-27T06:43:12;5.40;66.50
27671;DHT22;15077;49.704;9.908;2024-01-27T06:45:38;5.40;66.50
27671;DHT22;15077;49.704;9.908;2024-01-27T06:48:05;5.40;66.50
27671;DHT22;15077;49.704;9.908;2024-01-27T06:50:32;5.40;66.50
27671;DHT22;15077;49.704;9.908;2024-01-27T06:52:58;5.30;66.50
27671;DHT22;15077;49.704;9.908;2024-01-27T06:55:24;5.30;66.50
27671;DHT22;15077;49.704;9.908;2024-01-27T06:57:50;5.30;66.50
27671;DHT22;15077;49.704;9.908;2024-01-27T07:00:16;5.30;66.60
27671;DHT22;15077;49.704;9.908;2024-01-27T07:02:42;5.30;66.60
27671;DHT22;15077;49.704;9.908;2024-01-27T07:05:08;5.30;66.60
27671;DHT22;15077;49.704;9.908;2024-01-27T07:07:34;5.30;66.70
27671;DHT22;15077;49.704;9.908;2024-01-27T07:10:01;5.30;66.60
27671;DHT22;15077;49.704;9.908;2024-01-27T07:12:27;5.30;66.80
27671;DHT22;15077;49.704;9.908;2024-01-27T07:14:52;5.30;66.70
27671;DHT22;15077;49.704;9.908;2024-01-27T07:17:20;5.30;66.70
27671;DHT22;15077;49.704;9.908;2024-01-27T07:19:46;5.30;66.70
27671;DHT22;15077;49.704;9.908;2024-01-27T07:22:12;5.30;66.80
27671;DHT22;15077;49.704;9.908;2024-01-27T07:24:38;5.20;66.80
27671;DHT22;15077;49.704;9.908;2024-01-27T07:27:04;5.20;66.90
27671;DHT22;15077;49.704;9.908;2024-01-27T07:29:30;5.20;67.50
27671;DHT22;15077;49.704;9.908;2024-01-27T07:31:55;5.10;67.00
27671;DHT22;15077;49.704;9.908;2024-01-27T07:34:21;5.20;67.00
27671;DHT22;15077;49.704;9.908;2024-01-27T07:36:47;5.10;67.00
27671;DHT22;15077;49.704;9.908;2024-01-27T07:39:15;5.10;67.00
27671;DHT22;15077;49.704;9.908;2024-01-27T07:41:41;5.10;67.10
27671;DHT22;15077;49.704;9.908;2024-01-27T07:46:35;5.10;67.20
27671;DHT22;15077;49.704;9.908;2024-01-27T07:49:01;5.00;67.20
27671;DHT22;15077;49.704;9.908;2024-01-27T07:51:28;5.00;67.30
27671;DHT22;15077;49.704;9.908;2024-01-27T07:53:53;5.00;67.30
27671;DHT22;15077;49.704;9.908;2024-01-27T07:56:19;5.00;67.40
27671;DHT22;15077;49.704;9.908;2024-01-27T07:58:45;5.00;67.50
27671;DHT22;15077;49.704;9.908;2024-01-27T08:01:14;5.00;67.50
27671;DHT22;15077;49.704;9.908;2024-01-27T08:03:41;5.00;67.60
27671;DHT22;15077;49.704;9.908;2024-01-27T08:06:07;4.90;67.50
27671;DHT22;15077;49.704;9.908;2024-01-27T08:08:39;5.00;67.50
27671;DHT22;15077;49.704;9.908;2024-01-27T08:11:05;5.00;67.70
27671;DHT22;15077;49.704;9.908;2024-01-27T08:13:30;5.00;67.70
27671;DHT22;15077;49.704;9.908;2024-01-27T08:15:56;4.90;67.70
27671;DHT22;15077;49.704;9.908;2024-01-27T08:18:21;4.90;67.80
27671;DHT22;15077;49.704;9.908;2024-01-27T08:20:47;4.90;67.80
27671;DHT22;15077;49.704;9.908;2024-01-27T08:23:13;4.90;67.80
27671;DHT22;15077;49.704;9.908;2024-01-27T08:25:38;4.90;67.90
27671;DHT22;15077;49.704;9.908;2024-01-27T08:28:04;4.90;68.10
27671;DHT22;15077;49.704;9.908;2024-01-27T08:30:30;4.90;68.10
27671;DHT22;15077;49.704;9.908;2024-01-27T08:32:56;4.90;68.10
27671;DHT22;15077;49.704;9.908;2024-01-27T08:35:22;5.00;68.30
27671;DHT22;15077;49.704;9.908;2024-01-27T08:37:48;5.00;68.20
27671;DHT22;15077;49.704;9.908;2024-01-27T08:40:13;5.00;68.30
27671;DHT22;15077;49.704;9.908;2024-01-27T08:42:39;5.00;68.30
27671;DHT22;15077;49.704;9.908;2024-01-27T08:45:05;5.00;68.60
27671;DHT22;15077;49.704;9.908;2024-01-27T08:47:31;5.00;68.60
27671;DHT22;15077;49.704;9.908;2024-01-27T08:49:57;5.10;68.50
27671;DHT22;15077;49.704;9.908;2024-01-27T08:52:23;5.10;68.60
27671;DHT22;15077;49.704;9.908;2024-01-27T08:54:48;5.10;68.60
27671;DHT22;15077;49.704;9.908;2024-01-27T08:57:14;5.20;68.70
27671;DHT22;15077;49.704;9.908;2024-01-27T08:59:39;5.20;68.70
27671;DHT22;15077;49.704;9.908;2024-01-27T09:02:05;5.30;68.80
27671;DHT22;15077;49.704;9.908;2024-01-27T09:04:31;5.30;68.80
27671;DHT22;15077;49.704;9.908;2024-01-27T09:06:56;5.40;69.00
27671;DHT22;15077;49.704;9.908;2024-01-27T09:09:22;5.40;69.00
27671;DHT22;15077;49.704;9.908;2024-01-27T09:11:48;5.50;69.00
27671;DHT22;15077;49.704;9.908;2024-01-27T09:14:15;5.50;68.90
27671;DHT22;15077;49.704;9.908;2024-01-27T09:16:41;5.60;69.00
27671;DHT22;15077;49.704;9.908;2024-01-27T09:19:07;5.70;69.00
27671;DHT22;15077;49.704;9.908;2024-01-27T09:21:33;5.70;69.00
27671;DHT22;15077;49.704;9.908;2024-01-27T09:23:59;5.80;69.10
27671;DHT22;15077;49.704;9.908;2024-01-27T09:26:26;5.90;69.00
27671;DHT22;15077;49.704;9.908;2024-01-27T09:28:52;6.00;69.00
27671;DHT22;15077;49.704;9.908;2024-01-27T09:31:21;6.10;69.00
27671;DHT22;15077;49.704;9.908;2024-01-27T09:33:50;6.20;68.90
27671;DHT22;15077;49.704;9.908;2024-01-27T09:36:19;6.20;68.70
27671;DHT22;15077;49.704;9.908;2024-01-27T09:38:45;6.30;68.80
27671;DHT22;15077;49.704;9.908;2024-01-27T09:41:15;6.40;68.80
27671;DHT22;15077;49.704;9.908;2024-01-27T09:43:42;6.50;68.90
27671;DHT22;15077;49.704;9.908;2024-01-27T09:46:15;6.60;69.00
27671;DHT22;15077;49.704;9.908;2024-01-27T09:48:42;6.70;69.10
27671;DHT22;15077;49.704;9.908;2024-01-27T09:51:08;6.80;69.00
27671;DHT22;15077;49.704;9.908;2024-01-27T09:53:35;6.90;69.00
27671;DHT22;15077;49.704;9.908;2024-01-27T09:56:01;7.00;68.90
27671;DHT22;15077;49.704;9.908;2024-01-27T09:58:30;7.10;69.00
27671;DHT22;15077;49.704;9.908;2024-01-27T10:00:56;7.30;69.30
27671;DHT22;15077;49.704;9.908;2024-01-27T10:03:27;7.40;69.80
27671;DHT22;15077;49.704;9.908;2024-01-27T10:05:55;7.60;70.30
27671;DHT22;15077;49.704;9.908;2024-01-27T10:08:22;7.80;69.80
27671;DHT22;15077;49.704;9.908;2024-01-27T10:10:50;8.10;69.80
27671;DHT22;15077;49.704;9.908;2024-01-27T10:13:21;8.30;70.10
27671;DHT22;15077;49.704;9.908;2024-01-27T10:16:05;8.60;70.10
27671;DHT22;15077;49.704;9.908;2024-01-27T10:18:32;8.80;69.90
27671;DHT22;15077;49.704;9.908;2024-01-27T10:20:59;9.20;69.90
27671;DHT22;15077;49.704;9.908;2024-01-27T10:23:25;9.60;69.30
27671;DHT22;15077;49.704;9.908;2024-01-27T10:25:51;9.90;69.40
27671;DHT22;15077;49.704;9.908;2024-01-27T10:28:17;10.30;69.30
27671;DHT22;15077;49.704;9.908;2024-01-27T10:30:44;10.70;69.30
27671;DHT22;15077;49.704;9.908;2024-01-27T10:33:10;11.10;69.30
27671;DHT22;15077;49.704;9.908;2024-01-27T10:35:39;11.50;68.70
27671;DHT22;15077;49.704;9.908;2024-01-27T10:38:05;11.90;68.30
27671;DHT22;15077;49.704;9.908;2024-01-27T10:40:31;12.30;67.90
27671;DHT22;15077;49.704;9.908;2024-01-27T10:43:00;12.60;66.90
27671;DHT22;15077;49.704;9.908;2024-01-27T10:45:27;12.90;66.80
27671;DHT22;15077;49.704;9.908;2024-01-27T10:47:54;13.20;66.50
27671;DHT22;15077;49.704;9.908;2024-01-27T10:50:23;13.50;66.40
27671;DHT22;15077;49.704;9.908;2024-01-27T10:52:49;13.80;65.60
27671;DHT22;15077;49.704;9.908;2024-01-27T10:55:15;14.10;65.00
27671;DHT22;15077;49.704;9.908;2024-01-27T10:57:42;14.40;63.90
27671;DHT22;15077;49.704;9.908;2024-01-27T11:00:09;14.60;64.20
27671;DHT22;15077;49.704;9.908;2024-01-27T11:02:36;14.80;63.70
27671;DHT22;15077;49.704;9.908;2024-01-27T11:05:02;14.90;63.70
27671;DHT22;15077;49.704;9.908;2024-01-27T11:07:32;15.10;63.10
27671;DHT22;15077;49.704;9.908;2024-01-27T11:09:58;15.30;63.20
27671;DHT22;15077;49.704;9.908;2024-01-27T11:12:24;15.50;60.80
27671;DHT22;15077;49.704;9.908;2024-01-27T11:14:51;15.70;61.90
27671;DHT22;15077;49.704;9.908;2024-01-27T11:17:17;15.90;62.20
27671;DHT22;15077;49.704;9.908;2024-01-27T11:19:46;16.10;61.50
27671;DHT22;15077;49.704;9.908;2024-01-27T11:22:25;16.30;61.80
27671;DHT22;15077;49.704;9.908;2024-01-27T11:27:50;16.60;61.20
27671;DHT22;15077;49.704;9.908;2024-01-27T11:33:00;16.90;60.70
27671;DHT22;15077;49.704;9.908;2024-01-27T11:35:27;17.00;59.90
27671;DHT22;15077;49.704;9.908;2024-01-27T11:37:54;17.10;58.70
27671;DHT22;15077;49.704;9.908;2024-01-27T11:40:19;17.10;58.00
27671;DHT22;15077;49.704;9.908;2024-01-27T11:42:55;17.10;57.40
27671;DHT22;15077;49.704;9.908;2024-01-27T11:45:26;17.10;56.20
27671;DHT22;15077;49.704;9.908;2024-01-27T11:47:55;17.10;57.20
27671;DHT22;15077;49.704;9.908;2024-01-27T11:50:21;17.00;56.10
27671;DHT22;15077;49.704;9.908;2024-01-27T11:52:47;16.90;54.50
27671;DHT22;15077;49.704;9.908;2024-01-27T11:55:12;16.80;56.20
27671;DHT22;15077;49.704;9.908;2024-01-27T11:57:40;16.80;57.20
27671;DHT22;15077;49.704;9.908;2024-01-27T12:00:07;16.80;57.60
27671;DHT22;15077;49.704;9.908;2024-01-27T12:02:35;16.90;57.50
27671;DHT22;15077;49.704;9.908;2024-01-27T12:05:01;16.90;56.30
27671;DHT22;15077;49.704;9.908;2024-01-27T12:07:27;16.90;55.30
27671;DHT22;15077;49.704;9.908;2024-01-27T12:09:52;16.90;56.60
27671;DHT22;15077;49.704;9.908;2024-01-27T12:12:18;17.00;57.50
27671;DHT22;15077;49.704;9.908;2024-01-27T12:14:49;17.10;58.00
27671;DHT22;15077;49.704;9.908;2024-01-27T12:17:16;17.20;57.90
27671;DHT22;15077;49.704;9.908;2024-01-27T12:19:45;17.30;57.70
27671;DHT22;15077;49.704;9.908;2024-01-27T12:22:23;17.40;58.00
27671;DHT22;15077;49.704;9.908;2024-01-27T12:24:51;17.50;58.00
27671;DHT22;15077;49.704;9.908;2024-01-27T12:27:17;17.60;55.90
27671;DHT22;15077;49.704;9.908;2024-01-27T12:29:43;17.70;56.60
27671;DHT22;15077;49.704;9.908;2024-01-27T12:32:11;17.70;56.20
27671;DHT22;15077;49.704;9.908;2024-01-27T12:34:40;17.80;56.50
27671;DHT22;15077;49.704;9.908;2024-01-27T12:37:07;17.80;56.20
27671;DHT22;15077;49.704;9.908;2024-01-27T12:39:34;17.80;54.20
27671;DHT22;15077;49.704;9.908;2024-01-27T12:42:00;17.80;53.50
27671;DHT22;15077;49.704;9.908;2024-01-27T12:44:26;17.80;55.30
27671;DHT22;15077;49.704;9.908;2024-01-27T12:46:51;17.80;55.90
27671;DHT22;15077;49.704;9.908;2024-01-27T12:49:17;17.80;56.10
27671;DHT22;15077;49.704;9.908;2024-01-27T12:51:42;17.80;56.10
27671;DHT22;15077;49.704;9.908;2024-01-27T12:54:09;17.90;56.50
27671;DHT22;15077;49.704;9.908;2024-01-27T12:56:34;18.00;56.50
27671;DHT22;15077;49.704;9.908;2024-01-27T13:01:28;18.00;56.00
27671;DHT22;15077;49.704;9.908;2024-01-27T13:03:54;17.90;55.50
27671;DHT22;15077;49.704;9.908;2024-01-27T13:06:19;17.90;55.80
27671;DHT22;15077;49.704;9.908;2024-01-27T13:08:45;17.80;55.20
27671;DHT22;15077;49.704;9.908;2024-01-27T13:11:11;17.70;54.70
27671;DHT22;15077;49.704;9.908;2024-01-27T13:13:39;17.60;55.20
27671;DHT22;15077;49.704;9.908;2024-01-27T13:16:06;17.40;55.40
27671;DHT22;15077;49.704;9.908;2024-01-27T13:18:32;17.30;54.80
27671;DHT22;15077;49.704;9.908;2024-01-27T13:20:57;17.10;53.60
27671;DHT22;15077;49.704;9.908;2024-01-27T13:23:23;16.90;53.70
27671;DHT22;15077;49.704;9.908;2024-01-27T13:25:49;16.60;54.20
27671;DHT22;15077;49.704;9.908;2024-01-27T13:28:15;16.40;53.90
27671;DHT22;15077;49.704;9.908;2024-01-27T13:30:41;16.30;54.90
27671;DHT22;15077;49.704;9.908;2024-01-27T13:33:07;16.10;54.10
27671;DHT22;15077;49.704;9.908;2024-01-27T13:35:32;15.90;54.50
27671;DHT22;15077;49.704;9.908;2024-01-27T13:37:58;15.70;54.40
27671;DHT22;15077;49.704;9.908;2024-01-27T13:40:24;15.60;53.80
27671;DHT22;15077;49.704;9.908;2024-01-27T13:42:49;15.40;53.90
27671;DHT22;15077;49.704;9.908;2024-01-27T13:45:15;15.30;53.60
27671;DHT22;15077;49.704;9.908;2024-01-27T13:47:41;15.20;53.80
27671;DHT22;15077;49.704;9.908;2024-01-27T13:50:07;15.20;53.50
27671;DHT22;15077;49.704;9.908;2024-01-27T13:52:33;15.10;53.40
27671;DHT22;15077;49.704;9.908;2024-01-27T13:54:59;15.00;54.00
27671;DHT22;15077;49.704;9.908;2024-01-27T13:57:25;15.00;53.30
27671;DHT22;15077;49.704;9.908;2024-01-27T13:59:51;14.90;54.40
27671;DHT22;15077;49.704;9.908;2024-01-27T14:02:16;14.80;54.80
27671;DHT22;15077;49.704;9.908;2024-01-27T14:04:42;14.70;54.80
27671;DHT22;15077;49.704;9.908;2024-01-27T14:07:07;14.70;55.00
27671;DHT22;15077;49.704;9.908;2024-01-27T14:09:35;14.50;55.10
27671;DHT22;15077;49.704;9.908;2024-01-27T14:12:01;14.50;54.80
27671;DHT22;15077;49.704;9.908;2024-01-27T14:14:27;14.30;55.00
27671;DHT22;15077;49.704;9.908;2024-01-27T14:16:53;14.30;55.20
27671;DHT22;15077;49.704;9.908;2024-01-27T14:19:19;14.20;55.30
27671;DHT22;15077;49.704;9.908;2024-01-27T14:21:45;14.10;55.20
27671;DHT22;15077;49.704;9.908;2024-01-27T14:24:11;14.00;54.40
27671;DHT22;15077;49.704;9.908;2024-01-27T14:26:36;13.90;54.40
27671;DHT22;15077;49.704;9.908;2024-01-27T14:29:03;13.80;54.90
27671;DHT22;15077;49.704;9.908;2024-01-27T14:31:30;13.70;55.00
27671;DHT22;15077;49.704;9.908;2024-01-27T14:33:56;13.60;54.90
27671;DHT22;15077;49.704;9.908;2024-01-27T14:36:22;13.50;55.40
27671;DHT22;15077;49.704;9.908;2024-01-27T14:38:49;13.40;56.30
27671;DHT22;15077;49.704;9.908;2024-01-27T14:41:14;13.30;55.60
27671;DHT22;15077;49.704;9.908;2024-01-27T14:43:40;13.30;55.30
27671;DHT22;15077;49.704;9.908;2024-01-27T14:46:06;13.20;55.00
27671;DHT22;15077;49.704;9.908;2024-01-27T14:48:32;13.10;55.10
27671;DHT22;15077;49.704;9.908;2024-01-27T14:50:58;13.00;55.50
27671;DHT22;15077;49.704;9.908;2024-01-27T14:53:27;12.90;55.20
27671;DHT22;15077;49.704;9.908;2024-01-27T14:55:54;12.90;55.90
27671;DHT22;15077;49.704;9.908;2024-01-27T14:58:21;12.80;56.00
27671;DHT22;15077;49.704;9.908;2024-01-27T15:00:47;12.80;56.20
27671;DHT22;15077;49.704;9.908;2024-01-27T15:03:19;12.70;56.10
27671;DHT22;15077;49.704;9.908;2024-01-27T15:05:46;12.70;56.30
27671;DHT22;15077;49.704;9.908;2024-01-27T15:08:14;12.60;56.60
27671;DHT22;15077;49.704;9.908;2024-01-27T15:10:43;12.60;56.60
27671;DHT22;15077;49.704;9.908;2024-01-27T15:13:09;12.60;56.40
27671;DHT22;15077;49.704;9.908;2024-01-27T15:15:39;12.50;56.50
27671;DHT22;15077;49.704;9.908;2024-01-27T15:18:06;12.50;56.50
27671;DHT22;15077;49.704;9.908;2024-01-27T15:20:33;12.50;56.80
27671;DHT22;15077;49.704;9.908;2024-01-27T15:23:00;12.50;56.50
27671;DHT22;15077;49.704;9.908;2024-01-27T15:25:25;12.40;56.80
27671;DHT22;15077;49.704;9.908;2024-01-27T15:27:51;12.40;56.80
27671;DHT22;15077;49.704;9.908;2024-01-27T15:30:17;12.40;56.90
27671;DHT22;15077;49.704;9.908;2024-01-27T15:32:46;12.30;57.00
27671;DHT22;15077;49.704;9.908;2024-01-27T15:35:12;12.30;57.00
27671;DHT22;15077;49.704;9.908;2024-01-27T15:37:38;12.20;57.00
27671;DHT22;15077;49.704;9.908;2024-01-27T15:40:04;12.20;57.10
27671;DHT22;15077;49.704;9.908;2024-01-27T15:42:31;12.20;57.10
27671;DHT22;15077;49.704;9.908;2024-01-27T15:44:57;12.10;57.20